Time,TemperatureF,DewpointF,PressureIn,WindDirection,WindDirectionDegrees,WindSpeedMPH,WindSpeedGustMPH,Humidity,HourlyPrecipIn,Conditions,Clouds,dailyrainin,SolarRadiationWatts/m^2,SoftwareType,DateUTC
2013-08-08 00:05:00,68.8,41.0,29.90,ENE,63,0.0,-999.0,37,-99.99,,,0.00,0,weatherlink.com 1.10,2013-08-08 06:05:00,
2013-08-08 00:20:00,68.6,40.0,29.91,NE,47,0.0,-999.0,36,-99.99,,,0.00,0,weatherlink.com 1.10,2013-08-08 06:20:00,
2013-08-08 00:35:00,68.1,40.0,29.91,NE,38,3.0,-999.0,36,-99.99,,,0.00,0,weatherlink.com 1.10,2013-08-08 06:35:00,
2013-08-08 00:50:00,67.4,40.0,29.92,NE,36,0.0,-999.0,37,-99.99,,,0.00,0,weatherlink.com 1.10,2013-08-08 06:50:00,
2013-08-08 01:05:00,66.7,41.0,29.92,NE,39,6.0,-999.0,39,-99.99,,,0.00,0,weatherlink.com 1.10,2013-08-08 07:05:00,
2013-08-08 01:20:00,65.9,40.0,29.92,NE,36,5.0,-999.0,39,-99.99,,,0.00,0,weatherlink.com 1.10,2013-08-08 07:20:00,
2013-08-08 01:35:00,65.9,40.0,29.92,ENE,61,3.0,-999.0,39,-99.99,,,0.00,0,weatherlink.com 1.10,2013-08-08 07:35:00,
2013-08-08 01:50:00,66.0,40.0,29.92,ENE,75,0.0,-999.0,39,-99.99,,,0.00,0,weatherlink.com 1.10,2013-08-08 07:50:00,
2013-08-08 02:05:00,66.4,40.0,29.93,East,94,0.0,-999.0,38,-99.99,,,0.00,0,weatherlink.com 1.10,2013-08-08 08:05:00,
2013-08-08 02:20:00,66.8,42.0,29.93,ENE,71,4.0,-999.0,41,-99.99,,,0.00,0,weatherlink.com 1.10,2013-08-08 08:20:00,
2013-08-08 02:35:00,67.9,45.0,29.93,ENE,74,5.0,-999.0,44,-99.99,,,0.00,0,weatherlink.com 1.10,2013-08-08 08:35:00,
2013-08-08 02:50:00,66.7,46.0,29.93,East,90,2.0,-999.0,47,-99.99,,,0.00,0,weatherlink.com 1.10,2013-08-08 08:50:00,
2013-08-08 03:05:00,66.6,47.0,29.93,ESE,113,7.0,-999.0,49,-99.99,,,0.00,0,weatherlink.com 1.10,2013-08-08 09:05:00,
2013-08-08 03:20:00,66.4,47.0,29.93,ESE,109,12.0,-999.0,50,-99.99,,,0.00,0,weatherlink.com 1.10,2013-08-08 09:20:00,
2013-08-08 03:35:00,65.9,48.0,29.93,ESE,105,9.0,-999.0,52,-99.99,,,0.00,0,weatherlink.com 1.10,2013-08-08 09:35:00,
2013-08-08 03:50:00,65.2,48.0,29.93,East,98,5.0,-999.0,54,-99.99,,,0.00,0,weatherlink.com 1.10,2013-08-08 09:50:00,
2013-08-08 04:05:00,64.2,48.0,29.92,East,99,7.0,-999.0,56,-99.99,,,0.00,0,weatherlink.com 1.10,2013-08-08 10:05:00,
2013-08-08 04:20:00,63.5,48.0,29.93,ESE,109,5.0,-999.0,57,-99.99,,,0.00,0,weatherlink.com 1.10,2013-08-08 10:20:00,
2013-08-08 04:35:00,63.0,48.0,29.93,East,98,0.0,-999.0,59,-99.99,,,0.00,0,weatherlink.com 1.10,2013-08-08 10:35:00,
2013-08-08 04:50:00,62.5,48.0,29.93,NW,319,0.0,-999.0,60,-99.99,,,0.00,0,weatherlink.com 1.10,2013-08-08 10:50:00,
2013-08-08 05:05:00,61.8,48.0,29.93,ENE,69,4.0,-999.0,62,-99.99,,,0.00,0,weatherlink.com 1.10,2013-08-08 11:05:00,
2013-08-08 05:21:00,61.5,48.0,29.93,ENE,70,4.0,-999.0,62,-99.99,,,0.00,0,weatherlink.com 1.10,2013-08-08 11:21:00,
2013-08-08 05:36:00,60.0,47.0,29.94,NNW,331,0.0,-999.0,63,-99.99,,,0.00,0,weatherlink.com 1.10,2013-08-08 11:36:00,
2013-08-08 05:51:00,59.3,48.0,29.94,ENE,66,0.0,-999.0,66,-99.99,,,0.00,0,weatherlink.com 1.10,2013-08-08 11:51:00,
2013-08-08 06:06:00,58.6,48.0,29.94,NE,55,0.0,-999.0,67,-99.99,,,0.00,0,weatherlink.com 1.10,2013-08-08 12:06:00,
2013-08-08 06:21:00,58.4,48.0,29.94,ENE,71,4.0,-999.0,68,-99.99,,,0.00,11,weatherlink.com 1.10,2013-08-08 12:21:00,
2013-08-08 06:36:00,58.2,48.0,29.94,East,80,2.0,-999.0,69,-99.99,,,0.00,21,weatherlink.com 1.10,2013-08-08 12:36:00,
2013-08-08 06:51:00,58.6,48.0,29.94,NW,317,0.0,-999.0,67,-99.99,,,0.00,47,weatherlink.com 1.10,2013-08-08 12:51:00,
2013-08-08 07:06:00,59.4,49.0,29.95,NE,36,0.0,-999.0,68,-99.99,,,0.00,93,weatherlink.com 1.10,2013-08-08 13:06:00,
2013-08-08 07:21:00,60.9,49.0,29.95,NE,36,0.0,-999.0,65,-99.99,,,0.00,142,weatherlink.com 1.10,2013-08-08 13:21:00,
2013-08-08 07:36:00,62.0,49.0,29.95,NNW,340,0.0,-999.0,63,-99.99,,,0.00,192,weatherlink.com 1.10,2013-08-08 13:36:00,
2013-08-08 07:51:00,62.2,50.0,29.95,NNW,346,0.0,-999.0,64,-99.99,,,0.00,202,weatherlink.com 1.10,2013-08-08 13:51:00,
2013-08-08 08:06:00,62.7,50.0,29.94,NW,326,0.0,-999.0,64,-99.99,,,0.00,274,weatherlink.com 1.10,2013-08-08 14:06:00,
2013-08-08 08:21:00,63.8,50.0,29.95,NW,324,0.0,-999.0,61,-99.99,,,0.00,323,weatherlink.com 1.10,2013-08-08 14:21:00,
2013-08-08 08:36:00,65.5,51.0,29.95,NW,311,0.0,-999.0,60,-99.99,,,0.00,362,weatherlink.com 1.10,2013-08-08 14:36:00,
2013-08-08 08:51:00,66.9,51.0,29.95,NNW,339,0.0,-999.0,58,-99.99,,,0.00,415,weatherlink.com 1.10,2013-08-08 14:51:00,
2013-08-08 09:06:00,68.3,51.0,29.95,NW,307,0.0,-999.0,54,-99.99,,,0.00,462,weatherlink.com 1.10,2013-08-08 15:06:00,
2013-08-08 09:21:00,69.5,51.0,29.95,WNW,292,0.0,-999.0,52,-99.99,,,0.00,510,weatherlink.com 1.10,2013-08-08 15:21:00,
2013-08-08 09:36:00,68.7,51.0,29.95,ESE,123,0.0,-999.0,54,-99.99,,,0.00,510,weatherlink.com 1.10,2013-08-08 15:36:00,
2013-08-08 09:52:00,69.2,51.0,29.95,ESE,123,0.0,-999.0,52,-99.99,,,0.00,584,weatherlink.com 1.10,2013-08-08 15:52:00,
2013-08-08 10:07:00,70.5,51.0,29.95,SW,229,0.0,-999.0,50,-99.99,,,0.00,622,weatherlink.com 1.10,2013-08-08 16:07:00,
2013-08-08 10:22:00,70.3,51.0,29.94,SW,223,6.0,-999.0,50,-99.99,,,0.00,596,weatherlink.com 1.10,2013-08-08 16:22:00,
2013-08-08 10:37:00,71.2,50.0,29.94,SW,230,3.0,-999.0,48,-99.99,,,0.00,577,weatherlink.com 1.10,2013-08-08 16:37:00,
2013-08-08 10:52:00,71.7,50.0,29.94,SW,229,0.0,-999.0,46,-99.99,,,0.00,722,weatherlink.com 1.10,2013-08-08 16:52:00,
2013-08-08 11:07:00,73.4,51.0,29.94,NE,49,0.0,-999.0,45,-99.99,,,0.00,793,weatherlink.com 1.10,2013-08-08 17:07:00,
2013-08-08 11:22:00,74.6,50.0,29.93,ENE,64,6.0,-999.0,42,-99.99,,,0.00,708,weatherlink.com 1.10,2013-08-08 17:22:00,
2013-08-08 11:37:00,74.7,49.0,29.93,South,171,0.0,-999.0,41,-99.99,,,0.00,881,weatherlink.com 1.10,2013-08-08 17:37:00,
2013-08-08 11:52:00,76.2,47.0,29.92,East,90,5.0,-999.0,36,-99.99,,,0.00,902,weatherlink.com 1.10,2013-08-08 17:52:00,
2013-08-08 12:07:00,77.5,47.0,29.92,ESE,102,6.0,-999.0,34,-99.99,,,0.00,791,weatherlink.com 1.10,2013-08-08 18:07:00,
2013-08-08 12:22:00,77.1,47.0,29.91,SSE,159,0.0,-999.0,34,-99.99,,,0.00,510,weatherlink.com 1.10,2013-08-08 18:22:00,
2013-08-08 12:37:00,77.3,48.0,29.91,NNE,23,0.0,-999.0,35,-99.99,,,0.00,817,weatherlink.com 1.10,2013-08-08 18:37:00,
2013-08-08 12:52:00,77.7,48.0,29.91,South,190,4.0,-999.0,35,-99.99,,,0.00,870,weatherlink.com 1.10,2013-08-08 18:52:00,
2013-08-08 13:07:00,77.5,49.0,29.90,SSW,194,0.0,-999.0,37,-99.99,,,0.00,824,weatherlink.com 1.10,2013-08-08 19:07:00,
2013-08-08 13:22:00,79.3,48.0,29.90,SW,222,1.0,-999.0,33,-99.99,,,0.00,1011,weatherlink.com 1.10,2013-08-08 19:22:00,
2013-08-08 13:37:00,80.2,48.0,29.89,South,182,0.0,-999.0,32,-99.99,,,0.00,1071,weatherlink.com 1.10,2013-08-08 19:37:00,
2013-08-08 13:52:00,79.1,46.0,29.89,ESE,123,2.0,-999.0,31,-99.99,,,0.00,708,weatherlink.com 1.10,2013-08-08 19:52:00,
2013-08-08 14:07:00,79.1,48.0,29.88,ESE,123,0.0,-999.0,33,-99.99,,,0.00,360,weatherlink.com 1.10,2013-08-08 20:07:00,
2013-08-08 14:22:00,78.7,46.0,29.87,South,182,0.0,-999.0,32,-99.99,,,0.00,510,weatherlink.com 1.10,2013-08-08 20:22:00,
2013-08-08 14:37:00,80.4,47.0,29.87,SW,215,0.0,-999.0,31,-99.99,,,0.00,708,weatherlink.com 1.10,2013-08-08 20:37:00,
2013-08-08 14:52:00,81.1,48.0,29.86,SW,223,8.0,-999.0,31,-99.99,,,0.00,587,weatherlink.com 1.10,2013-08-08 20:52:00,
2013-08-08 15:07:00,81.1,44.0,29.86,SW,225,16.0,-999.0,27,-99.99,,,0.00,613,weatherlink.com 1.10,2013-08-08 21:07:00,
2013-08-08 15:22:00,81.4,43.0,29.86,South,182,6.0,-999.0,26,-99.99,,,0.00,550,weatherlink.com 1.10,2013-08-08 21:22:00,
2013-08-08 15:37:00,82.3,40.0,29.86,SSW,193,2.0,-999.0,22,-99.99,,,0.00,677,weatherlink.com 1.10,2013-08-08 21:37:00,
2013-08-08 15:53:00,82.5,39.0,29.85,South,175,4.0,-999.0,21,-99.99,,,0.00,663,weatherlink.com 1.10,2013-08-08 21:53:00,
2013-08-08 16:08:00,82.5,39.0,29.85,SSE,164,4.0,-999.0,21,-99.99,,,0.00,473,weatherlink.com 1.10,2013-08-08 22:08:00,
2013-08-08 16:23:00,82.4,35.0,29.86,South,180,5.0,-999.0,18,-99.99,,,0.00,348,weatherlink.com 1.10,2013-08-08 22:23:00,
2013-08-08 16:38:00,81.0,32.0,29.87,SSW,203,5.0,-999.0,17,-99.99,,,0.00,223,weatherlink.com 1.10,2013-08-08 22:38:00,
2013-08-08 16:53:00,80.1,40.0,29.89,NW,306,13.0,-999.0,24,-99.99,,,0.00,185,weatherlink.com 1.10,2013-08-08 22:53:00,
2013-08-08 17:08:00,77.8,41.0,29.89,WNW,292,16.0,-999.0,27,-99.99,,,0.00,271,weatherlink.com 1.10,2013-08-08 23:08:00,
2013-08-08 17:23:00,76.8,42.0,29.90,NW,305,15.0,-999.0,29,-99.99,,,0.00,283,weatherlink.com 1.10,2013-08-08 23:23:00,
2013-08-08 17:38:00,76.4,41.0,29.90,NW,309,10.0,-999.0,28,-99.99,,,0.00,309,weatherlink.com 1.10,2013-08-08 23:38:00,
2013-08-08 17:53:00,76.6,41.0,29.91,NNW,344,4.0,-999.0,28,-99.99,,,0.00,255,weatherlink.com 1.10,2013-08-08 23:53:00,
2013-08-08 18:08:00,76.6,42.0,29.91,North,350,0.0,-999.0,29,-99.99,,,0.00,186,weatherlink.com 1.10,2013-08-09 00:08:00,
2013-08-08 18:23:00,76.7,40.0,29.91,NNW,329,0.0,-999.0,27,-99.99,,,0.00,246,weatherlink.com 1.10,2013-08-09 00:23:00,
2013-08-08 18:53:00,77.1,38.0,29.91,ENE,75,6.0,-999.0,24,-99.99,,,0.00,74,weatherlink.com 1.10,2013-08-09 00:53:00,
2013-08-08 19:08:00,76.8,39.0,29.91,NE,47,5.0,-999.0,26,-99.99,,,0.00,47,weatherlink.com 1.10,2013-08-09 01:08:00,
2013-08-08 19:23:00,76.1,42.0,29.92,ENE,57,17.0,-999.0,29,-99.99,,,0.00,33,weatherlink.com 1.10,2013-08-09 01:23:00,
2013-08-08 19:53:00,72.3,43.0,29.95,ENE,76,10.0,-999.0,35,-99.99,,,0.00,18,weatherlink.com 1.10,2013-08-09 01:53:00,
2013-08-08 20:08:00,71.5,43.0,29.95,NE,36,0.0,-999.0,36,-99.99,,,0.00,12,weatherlink.com 1.10,2013-08-09 02:08:00,
2013-08-08 20:23:00,71.0,43.0,29.95,ENE,61,4.0,-999.0,36,-99.99,,,0.00,0,weatherlink.com 1.10,2013-08-09 02:23:00,
2013-08-08 20:38:00,70.6,42.0,29.95,ENE,68,4.0,-999.0,36,-99.99,,,0.00,0,weatherlink.com 1.10,2013-08-09 02:38:00,
2013-08-08 20:53:00,70.3,43.0,29.95,SSE,157,0.0,-999.0,37,-99.99,,,0.00,0,weatherlink.com 1.10,2013-08-09 02:53:00,
2013-08-08 21:08:00,69.6,42.0,29.96,East,98,0.0,-999.0,37,-99.99,,,0.00,0,weatherlink.com 1.10,2013-08-09 03:08:00,
2013-08-08 21:23:00,69.6,42.0,29.96,East,97,0.0,-999.0,37,-99.99,,,0.00,0,weatherlink.com 1.10,2013-08-09 03:23:00,
2013-08-08 21:38:00,69.0,42.0,29.97,East,101,0.0,-999.0,38,-99.99,,,0.00,0,weatherlink.com 1.10,2013-08-09 03:38:00,
2013-08-08 21:53:00,68.0,43.0,29.98,WNW,300,0.0,-999.0,40,-99.99,,,0.00,0,weatherlink.com 1.10,2013-08-09 03:53:00,
2013-08-08 22:08:00,66.7,43.0,29.98,NNE,30,0.0,-999.0,43,-99.99,,,0.00,0,weatherlink.com 1.10,2013-08-09 04:08:00,
2013-08-08 22:23:00,66.0,43.0,29.99,NNE,19,0.0,-999.0,44,-99.99,,,0.00,0,weatherlink.com 1.10,2013-08-09 04:23:00,
2013-08-08 22:38:00,65.9,43.0,29.99,NNE,17,0.0,-999.0,44,-99.99,,,0.00,0,weatherlink.com 1.10,2013-08-09 04:38:00,
2013-08-08 22:53:00,65.7,44.0,30.00,NNE,17,0.0,-999.0,46,-99.99,,,0.00,0,weatherlink.com 1.10,2013-08-09 04:53:00,
2013-08-08 23:08:00,65.3,44.0,30.00,NNE,17,0.0,-999.0,46,-99.99,,,0.00,0,weatherlink.com 1.10,2013-08-09 05:08:00,
2013-08-08 23:23:00,65.0,44.0,30.01,NNE,17,0.0,-999.0,46,-99.99,,,0.00,0,weatherlink.com 1.10,2013-08-09 05:23:00,
2013-08-08 23:38:00,64.9,43.0,30.01,NNE,17,0.0,-999.0,45,-99.99,,,0.00,0,weatherlink.com 1.10,2013-08-09 05:38:00,
2013-08-08 23:53:00,63.9,43.0,30.01,NNE,17,0.0,-999.0,47,-99.99,,,0.00,0,weatherlink.com 1.10,2013-08-09 05:53:00,